createdAt,value
2019-05-18T00:03:24.863Z,8.49
2019-05-18T00:05:53.023Z,8.49
2019-05-18T00:08:39.395Z,8.48
2019-05-18T00:11:07.018Z,8.48
2019-05-18T00:13:53.809Z,8.46
2019-05-18T00:16:21.455Z,8.45
2019-05-18T00:18:49.211Z,8.45
2019-05-18T00:21:35.513Z,8.45
2019-05-18T00:26:36.496Z,8.39
2019-05-18T00:29:05.781Z,8.39
2019-05-18T00:31:52.473Z,8.35
2019-05-18T00:34:20.251Z,8.34
2019-05-18T00:36:48.011Z,8.34
2019-05-18T00:39:15.671Z,8.36
2019-05-18T00:42:02.028Z,8.37
2019-05-18T00:44:48.311Z,8.33
2019-05-18T00:47:15.931Z,8.33
2019-05-18T00:50:02.280Z,8.17
2019-05-18T00:52:29.891Z,8.17
2019-05-18T00:55:16.260Z,8.10
2019-05-18T00:57:43.944Z,8.06
2019-05-18T01:03:18.326Z,8.06
2019-05-18T01:05:46.366Z,8.06
2019-05-18T01:08:14.031Z,8.04
2019-05-18T01:10:41.577Z,8.00
2019-05-18T01:13:09.252Z,7.97
2019-05-18T01:15:36.795Z,7.95
2019-05-18T01:18:23.199Z,7.93
2019-05-18T01:20:50.856Z,7.93
2019-05-18T01:23:37.179Z,7.85
2019-05-18T01:26:23.455Z,7.74
2019-05-18T01:29:02.953Z,7.74
2019-05-18T01:31:20.426Z,7.69
2019-05-18T01:34:06.836Z,7.64
2019-05-18T01:36:36.935Z,7.64
2019-05-18T01:39:23.335Z,7.62
2019-05-18T01:41:50.903Z,7.62
2019-05-18T01:44:37.182Z,7.65
2019-05-18T01:47:25.862Z,7.62
2019-05-18T01:50:12.510Z,7.66
2019-05-18T01:52:40.542Z,7.73
2019-05-18T01:58:32.018Z,7.79
2019-05-18T02:01:21.184Z,8.01
2019-05-18T02:03:49.212Z,8.09
2019-05-18T02:06:16.774Z,8.09
2019-05-18T02:08:44.947Z,8.14
2019-05-18T02:11:31.366Z,8.25
2019-05-18T02:13:58.997Z,8.33
2019-05-18T02:16:48.286Z,8.37
2019-05-18T02:19:17.907Z,8.37
2019-05-18T02:21:45.452Z,8.41
2019-05-18T02:24:31.881Z,8.42
2019-05-18T02:26:59.492Z,8.42
2019-05-18T02:29:46.116Z,8.45
2019-05-18T02:32:13.980Z,8.45
2019-05-18T02:34:41.740Z,8.41
2019-05-18T02:37:28.430Z,8.24
2019-05-18T02:42:44.104Z,8.15
2019-05-18T02:45:30.550Z,8.02
2019-05-18T02:48:17.228Z,7.98
2019-05-18T02:53:19.443Z,7.92
2019-05-18T02:56:05.858Z,7.85
2019-05-18T02:58:52.276Z,7.84
2019-05-18T03:01:19.982Z,7.84
2019-05-18T03:04:06.339Z,7.80
2019-05-18T03:09:26.180Z,7.78
2019-05-18T03:12:12.633Z,7.75
2019-05-18T03:14:40.386Z,7.75
2019-05-18T03:17:26.801Z,7.75
2019-05-18T03:19:54.554Z,7.75
2019-05-18T03:22:22.305Z,7.77
2019-05-18T03:25:08.787Z,7.84
2019-05-18T03:27:36.484Z,7.84
2019-05-18T03:30:23.192Z,7.91
2019-05-18T03:35:24.150Z,7.96
2019-05-18T03:38:10.566Z,8.01
2019-05-18T03:48:56.698Z,8.18
2019-05-18T03:51:43.093Z,8.24
2019-05-18T03:54:29.784Z,8.32
2019-05-18T03:56:57.519Z,8.32
2019-05-18T03:59:44.184Z,8.49
2019-05-18T04:02:30.628Z,8.60
2019-05-18T04:04:58.235Z,8.60
2019-05-18T04:07:45.070Z,8.80
2019-05-18T04:10:12.814Z,8.80
2019-05-18T04:15:13.354Z,9.02
2019-05-18T04:17:41.015Z,9.19
2019-05-18T04:20:08.674Z,9.19
2019-05-18T04:22:55.096Z,9.31
2019-05-18T04:25:22.732Z,9.43
2019-05-18T04:27:50.378Z,9.69
2019-05-18T04:30:36.747Z,9.69
2019-05-18T04:33:23.173Z,9.85
2019-05-18T04:36:09.565Z,9.85
2019-05-18T04:38:55.979Z,9.92
2019-05-18T04:41:23.654Z,9.92
2019-05-18T04:43:51.319Z,9.95
2019-05-18T04:46:19.277Z,9.99
2019-05-18T04:48:48.039Z,10.07
2019-05-18T04:51:34.391Z,10.07
2019-05-18T04:54:02.262Z,10.06
2019-05-18T04:59:16.471Z,9.93
2019-05-18T05:02:03.175Z,9.90
2019-05-18T05:04:30.887Z,9.90
2019-05-18T05:07:17.314Z,9.89
2019-05-18T05:10:10.030Z,9.89
2019-05-18T05:12:37.804Z,9.94
2019-05-18T05:15:24.206Z,10.06
2019-05-18T05:17:51.826Z,10.15
2019-05-18T05:20:21.073Z,10.15
2019-05-18T05:24:12.426Z,10.25
2019-05-18T05:25:58.389Z,10.34
2019-05-18T05:29:08.747Z,10.44
2019-05-18T05:31:45.163Z,10.65
2019-05-18T05:34:34.059Z,11.05
2019-05-18T05:40:10.144Z,11.22
2019-05-18T05:42:37.735Z,11.38
2019-05-18T05:45:24.156Z,11.42
2019-05-18T05:47:54.637Z,11.42
2019-05-18T05:50:55.206Z,11.39
2019-05-18T05:56:17.133Z,11.46
2019-05-18T05:58:56.685Z,11.59
2019-05-18T06:01:32.954Z,11.75
2019-05-18T06:04:00.598Z,11.89
2019-05-18T06:06:47.028Z,11.98
2019-05-18T06:12:34.005Z,12.11
2019-05-18T06:17:54.829Z,12.37
2019-05-18T06:20:22.599Z,12.48
2019-05-18T06:23:09.047Z,12.57
2019-05-18T06:28:41.954Z,13.08
2019-05-18T06:31:12.045Z,13.08
2019-05-18T06:33:39.746Z,13.24
2019-05-18T06:36:26.112Z,13.32
2019-05-18T06:38:53.862Z,13.40
2019-05-18T06:41:40.324Z,13.79
2019-05-18T06:44:08.013Z,13.79
2019-05-18T06:46:54.468Z,14.05
2019-05-18T06:49:22.063Z,14.25
2019-05-18T06:52:08.518Z,14.42
2019-05-18T06:54:36.203Z,14.55
2019-05-18T06:57:22.662Z,14.73
2019-05-18T06:59:50.236Z,14.93
2019-05-18T07:02:36.688Z,15.19
2019-05-18T07:05:05.408Z,15.71
2019-05-18T07:07:51.811Z,15.71
2019-05-18T07:13:15.161Z,16.06
2019-05-18T07:18:34.787Z,16.53
2019-05-18T07:21:02.620Z,16.53
2019-05-18T07:23:49.055Z,16.81
2019-05-18T07:29:33.813Z,16.94
2019-05-18T07:32:09.898Z,17.10
2019-05-18T07:34:56.368Z,17.56
2019-05-18T07:37:24.120Z,17.56
2019-05-18T07:40:12.532Z,17.87
2019-05-18T07:42:40.258Z,18.38
2019-05-18T07:45:26.674Z,18.38
2019-05-18T07:47:54.429Z,18.57
2019-05-18T07:50:22.198Z,18.84
2019-05-18T07:53:08.567Z,18.97
2019-05-18T07:58:29.196Z,19.05
2019-05-18T08:04:04.370Z,19.23
2019-05-18T08:06:32.449Z,19.38
2019-05-18T08:09:18.839Z,19.60
2019-05-18T08:11:46.492Z,19.75
2019-05-18T08:14:32.937Z,19.94
2019-05-18T08:17:00.632Z,20.07
2019-05-18T08:19:47.086Z,20.23
2019-05-18T08:25:24.511Z,20.28
2019-05-18T08:30:57.516Z,20.37
2019-05-18T08:33:25.244Z,20.43
2019-05-18T08:36:11.619Z,20.51
2019-05-18T08:38:58.419Z,20.54
2019-05-18T08:41:44.788Z,20.54
2019-05-18T08:44:12.517Z,20.54
2019-05-18T08:46:40.509Z,20.61
2019-05-18T08:49:08.166Z,20.70
2019-05-18T08:51:37.919Z,20.86
2019-05-18T08:54:05.936Z,21.18
2019-05-18T08:56:33.958Z,21.18
2019-05-18T08:59:03.401Z,21.30
2019-05-18T09:01:40.508Z,21.46
2019-05-18T09:04:08.102Z,21.65
2019-05-18T09:06:35.812Z,22.14
2019-05-18T09:09:05.522Z,22.30
2019-05-18T09:11:38.154Z,22.30
2019-05-18T09:14:05.708Z,22.33
2019-05-18T09:16:36.580Z,22.46
2019-05-18T09:19:04.131Z,22.46
2019-05-18T09:21:31.785Z,22.40
2019-05-18T09:23:59.785Z,22.44
2019-05-18T09:26:29.086Z,22.44
2019-05-18T09:28:56.662Z,22.54
2019-05-18T09:31:24.657Z,22.54
2019-05-18T09:33:52.264Z,22.63
2019-05-18T09:36:20.051Z,22.73
2019-05-18T09:38:48.170Z,22.85
2019-05-18T09:41:18.484Z,22.92
2019-05-18T09:43:46.070Z,23.06
2019-05-18T09:46:14.116Z,23.18
2019-05-18T09:48:41.924Z,23.35
2019-05-18T09:51:09.568Z,23.55
2019-05-18T09:53:50.474Z,23.85
2019-05-18T09:56:12.634Z,24.14
2019-05-18T09:58:41.895Z,24.40
2019-05-18T10:01:16.155Z,24.73
2019-05-18T10:03:43.703Z,25.11
2019-05-18T10:06:13.202Z,25.51
2019-05-18T10:08:43.088Z,25.84
2019-05-18T10:11:12.990Z,26.18
2019-05-18T10:13:40.710Z,26.46
2019-05-18T10:16:08.733Z,26.71
2019-05-18T10:18:36.459Z,27.00
2019-05-18T10:21:04.056Z,27.32
2019-05-18T10:23:32.002Z,27.55
2019-05-18T10:25:59.597Z,27.83
2019-05-18T10:28:27.325Z,28.18
2019-05-18T10:30:55.241Z,28.54
2019-05-18T10:33:24.043Z,28.84
2019-05-18T10:35:51.657Z,29.06
2019-05-18T10:38:19.583Z,29.27
2019-05-18T10:40:47.226Z,29.27
2019-05-18T10:43:16.243Z,29.42
2019-05-18T10:45:45.155Z,29.80
2019-05-18T10:48:13.460Z,29.80
2019-05-18T10:50:44.110Z,30.00
2019-05-18T10:53:27.511Z,30.44
2019-05-18T10:55:41.454Z,30.44
2019-05-18T10:58:09.244Z,30.55
2019-05-18T11:00:37.245Z,30.76
2019-05-18T11:03:04.884Z,30.99
2019-05-18T11:05:32.467Z,31.18
2019-05-18T11:08:06.142Z,31.41
2019-05-18T11:10:38.822Z,31.49
2019-05-18T11:13:08.210Z,31.39
2019-05-18T11:15:38.418Z,31.33
2019-05-18T11:18:11.790Z,31.61
2019-05-18T11:20:38.416Z,31.61
2019-05-18T11:23:09.299Z,31.06
2019-05-18T11:25:37.038Z,31.06
2019-05-18T11:28:04.632Z,30.20
2019-05-18T11:30:32.742Z,29.31
2019-05-18T11:33:02.060Z,28.46
2019-05-18T11:35:29.912Z,27.91
2019-05-18T11:37:57.853Z,26.98
2019-05-18T11:40:25.488Z,26.98
2019-05-18T11:42:53.141Z,27.01
2019-05-18T11:45:31.376Z,27.99
2019-05-18T11:47:58.981Z,28.73
2019-05-18T11:50:27.289Z,28.73
2019-05-18T11:52:54.863Z,29.16
2019-05-18T11:55:22.585Z,29.55
2019-05-18T11:57:52.229Z,30.12
2019-05-18T12:00:24.859Z,30.46
2019-05-18T12:02:55.812Z,30.07
2019-05-18T12:05:25.903Z,30.07
2019-05-18T12:07:53.480Z,29.21
2019-05-18T12:10:39.227Z,28.23
2019-05-18T12:13:06.954Z,28.53
2019-05-18T12:15:36.284Z,29.46
2019-05-18T12:18:05.842Z,30.27
2019-05-18T12:20:33.294Z,30.54
2019-05-18T12:23:01.593Z,30.10
2019-05-18T12:25:29.135Z,29.37
2019-05-18T12:27:58.734Z,28.71
2019-05-18T12:30:29.863Z,28.20
2019-05-18T12:32:57.456Z,28.24
2019-05-18T12:35:25.092Z,28.71
2019-05-18T12:37:55.556Z,29.37
2019-05-18T12:40:23.559Z,29.66
2019-05-18T12:42:54.175Z,29.11
2019-05-18T12:45:23.332Z,29.26
2019-05-18T12:47:50.966Z,29.26
2019-05-18T12:50:23.122Z,29.31
2019-05-18T12:52:48.370Z,29.12
2019-05-18T12:55:20.643Z,28.13
2019-05-18T12:57:48.659Z,28.13
2019-05-18T13:00:22.203Z,27.79
2019-05-18T13:02:53.293Z,27.60
2019-05-18T13:05:20.919Z,27.77
2019-05-18T13:07:48.534Z,27.64
2019-05-18T13:10:21.895Z,27.64
2019-05-18T13:12:52.169Z,27.12
2019-05-18T13:15:21.429Z,27.12
2019-05-18T13:17:49.351Z,26.50
2019-05-18T13:20:17.917Z,26.50
2019-05-18T13:22:45.544Z,26.28
2019-05-18T13:25:15.627Z,26.07
2019-05-18T13:27:43.370Z,25.82
2019-05-18T13:30:11.362Z,25.60
2019-05-18T13:32:39.364Z,25.24
2019-05-18T13:35:06.941Z,25.24
2019-05-18T13:37:34.579Z,25.07
2019-05-18T13:40:02.660Z,24.91
2019-05-18T13:42:31.387Z,24.53
2019-05-18T13:44:59.313Z,24.53
2019-05-18T13:47:27.349Z,24.09
2019-05-18T13:49:58.195Z,24.09
2019-05-18T13:52:26.335Z,23.49
2019-05-18T13:55:03.521Z,23.01
2019-05-18T13:57:30.379Z,23.01
2019-05-18T13:59:56.572Z,22.55
2019-05-18T14:02:24.154Z,21.87
2019-05-18T14:04:51.807Z,21.87
2019-05-18T14:07:19.827Z,21.55
2019-05-18T14:09:49.410Z,21.22
2019-05-18T14:12:17.090Z,20.79
2019-05-18T14:14:45.091Z,19.72
2019-05-18T14:17:13.526Z,19.72
2019-05-18T14:19:41.200Z,19.36
2019-05-18T14:22:09.164Z,19.07
2019-05-18T14:24:36.815Z,18.72
2019-05-18T14:27:04.410Z,18.21
2019-05-18T14:29:33.515Z,18.21
2019-05-18T14:32:01.109Z,18.06
2019-05-18T14:34:28.705Z,18.00
2019-05-18T14:36:56.647Z,17.95
2019-05-18T14:39:24.307Z,17.95
2019-05-18T14:41:51.908Z,17.90
2019-05-18T14:44:19.956Z,17.90
2019-05-18T14:46:47.664Z,17.86
2019-05-18T14:49:15.338Z,17.86
2019-05-18T14:51:43.394Z,17.87
2019-05-18T14:54:29.853Z,17.87
2019-05-18T14:56:57.877Z,17.89
2019-05-18T14:59:25.540Z,17.92
2019-05-18T15:01:54.810Z,17.85
2019-05-18T15:04:22.849Z,17.68
2019-05-18T15:06:50.492Z,17.70
2019-05-18T15:09:21.049Z,17.73
2019-05-18T15:11:56.056Z,17.72
2019-05-18T15:14:23.609Z,17.76
2019-05-18T15:16:54.908Z,17.76
2019-05-18T15:19:22.941Z,17.80
2019-05-18T15:21:50.618Z,18.01
2019-05-18T15:24:18.240Z,18.01
2019-05-18T15:26:46.304Z,18.12
2019-05-18T15:29:17.414Z,18.15
2019-05-18T15:31:46.368Z,18.15
2019-05-18T15:34:14.315Z,18.16
2019-05-18T15:36:41.941Z,18.16
2019-05-18T15:39:09.551Z,18.17
2019-05-18T15:41:37.523Z,18.16
2019-05-18T15:44:05.089Z,18.15
2019-05-18T15:46:41.852Z,18.15
2019-05-18T15:49:09.891Z,18.17
2019-05-18T15:51:37.521Z,18.19
2019-05-18T15:54:05.125Z,18.22
2019-05-18T15:56:33.265Z,18.22
2019-05-18T15:59:00.893Z,18.25
2019-05-18T16:01:28.565Z,18.24
2019-05-18T16:03:56.551Z,18.26
2019-05-18T16:06:24.114Z,18.26
2019-05-18T16:08:51.737Z,18.26
2019-05-18T16:11:24.606Z,18.26
2019-05-18T16:13:52.328Z,18.28
2019-05-18T16:16:20.202Z,18.34
2019-05-18T16:18:48.152Z,18.39
2019-05-18T16:21:15.781Z,18.43
2019-05-18T16:23:44.980Z,18.47
2019-05-18T16:26:21.537Z,18.47
2019-05-18T16:28:45.041Z,18.51
2019-05-18T16:31:12.736Z,18.48
2019-05-18T16:33:55.823Z,18.48
2019-05-18T16:36:24.725Z,18.48
2019-05-18T16:38:59.932Z,18.45
2019-05-18T16:41:27.559Z,18.26
2019-05-18T16:43:56.479Z,18.26
2019-05-18T16:46:24.507Z,18.12
2019-05-18T16:48:52.137Z,17.91
2019-05-18T16:51:19.695Z,17.91
2019-05-18T16:53:50.414Z,17.84
2019-05-18T16:56:18.016Z,17.64
2019-05-18T16:58:45.663Z,17.55
2019-05-18T17:01:16.017Z,17.42
2019-05-18T17:03:43.651Z,17.42
2019-05-18T17:06:11.230Z,17.27
2019-05-18T17:08:39.262Z,16.82
2019-05-18T17:11:06.866Z,16.66
2019-05-18T17:13:34.536Z,16.66
2019-05-18T17:16:05.511Z,16.54
2019-05-18T17:18:38.439Z,16.45
2019-05-18T17:21:09.102Z,16.45
2019-05-18T17:23:37.102Z,16.41
2019-05-18T17:26:04.772Z,16.37
2019-05-18T17:28:32.465Z,16.38
2019-05-18T17:31:00.498Z,16.40
2019-05-18T17:33:31.193Z,16.41
2019-05-18T17:36:01.009Z,16.44
2019-05-18T17:38:31.731Z,16.47
2019-05-18T17:40:59.371Z,16.51
2019-05-18T17:43:29.788Z,16.54
2019-05-18T17:46:00.871Z,16.58
2019-05-18T17:48:28.507Z,16.59
2019-05-18T17:50:56.157Z,16.67
2019-05-18T17:53:24.166Z,16.71
2019-05-18T17:55:51.950Z,16.79
2019-05-18T17:58:19.582Z,16.88
2019-05-18T18:00:50.194Z,16.96
2019-05-18T18:03:17.759Z,16.96
2019-05-18T18:05:47.327Z,17.03
2019-05-18T18:08:17.817Z,17.06
2019-05-18T18:10:47.228Z,17.05
2019-05-18T18:13:17.949Z,17.05
2019-05-18T18:16:08.268Z,17.03
2019-05-18T18:18:15.363Z,17.02
2019-05-18T18:20:56.218Z,16.98
2019-05-18T18:23:26.471Z,16.91
2019-05-18T18:25:54.096Z,16.85
2019-05-18T18:28:25.983Z,16.81
2019-05-18T18:30:53.958Z,16.79
2019-05-18T18:33:21.636Z,16.75
2019-05-18T18:35:57.330Z,16.72
2019-05-18T18:38:25.475Z,16.69
2019-05-18T18:40:53.153Z,16.65
2019-05-18T18:43:22.445Z,16.65
2019-05-18T18:45:54.440Z,16.56
2019-05-18T18:48:26.284Z,16.56
2019-05-18T18:50:51.340Z,16.50
2019-05-18T18:53:20.382Z,16.39
2019-05-18T18:55:49.628Z,16.39
2019-05-18T18:58:39.133Z,16.27
2019-05-18T19:01:11.753Z,16.27
2019-05-18T19:03:42.172Z,16.19
2019-05-18T19:06:11.839Z,16.12
2019-05-18T19:08:42.435Z,16.05
2019-05-18T19:11:11.226Z,15.98
2019-05-18T19:13:45.660Z,15.87
2019-05-18T19:16:11.611Z,15.85
2019-05-18T19:18:42.098Z,15.85
2019-05-18T19:21:09.795Z,15.83
2019-05-18T19:23:37.756Z,15.82
2019-05-18T19:26:05.445Z,15.82
2019-05-18T19:28:50.851Z,15.83
2019-05-18T19:31:18.421Z,15.85
2019-05-18T19:33:46.332Z,15.84
2019-05-18T19:36:14.005Z,15.85
2019-05-18T19:38:41.742Z,15.85
2019-05-18T19:41:09.613Z,15.86
2019-05-18T19:43:40.290Z,15.81
2019-05-18T19:46:08.016Z,15.81
2019-05-18T19:48:35.579Z,15.77
2019-05-18T19:51:06.052Z,15.70
2019-05-18T19:53:36.756Z,15.63
2019-05-18T19:56:04.425Z,15.57
2019-05-18T19:58:35.079Z,15.50
2019-05-18T20:01:08.803Z,15.41
2019-05-18T20:03:41.368Z,15.41
2019-05-18T20:06:08.969Z,15.36
2019-05-18T20:08:36.587Z,15.32
2019-05-18T20:11:04.297Z,15.32
2019-05-18T20:13:33.327Z,15.25
2019-05-18T20:16:00.928Z,15.25
2019-05-18T20:18:29.844Z,15.24
2019-05-18T20:20:57.765Z,15.23
2019-05-18T20:23:31.335Z,15.22
2019-05-18T20:26:00.784Z,15.22
2019-05-18T20:28:30.901Z,15.19
2019-05-18T20:31:02.230Z,15.17
2019-05-18T20:33:33.329Z,15.16
2019-05-18T20:36:01.370Z,15.14
2019-05-18T20:38:29.000Z,15.14
2019-05-18T20:40:56.682Z,15.06
2019-05-18T20:43:24.617Z,14.99
2019-05-18T20:45:52.244Z,14.91
2019-05-18T20:48:21.040Z,14.86
2019-05-18T20:50:50.470Z,14.80
2019-05-18T20:53:18.026Z,14.78
2019-05-18T20:55:47.377Z,14.76
2019-05-18T20:58:18.492Z,14.68
2019-05-18T21:00:46.195Z,14.68
2019-05-18T21:03:14.210Z,14.64
2019-05-18T21:05:44.148Z,14.61
2019-05-18T21:08:15.400Z,14.58
2019-05-18T21:10:43.315Z,14.52
2019-05-18T21:13:11.297Z,14.52
2019-05-18T21:15:38.955Z,14.46
2019-05-18T21:18:08.602Z,14.41
2019-05-18T21:20:36.299Z,14.37
2019-05-18T21:23:03.832Z,14.26
2019-05-18T21:25:40.602Z,14.26
2019-05-18T21:28:08.248Z,14.17
2019-05-18T21:30:35.853Z,14.17
2019-05-18T21:33:12.930Z,14.11
2019-05-18T21:35:40.490Z,13.98
2019-05-18T21:38:19.239Z,13.98
2019-05-18T21:40:47.295Z,13.90
2019-05-18T21:43:14.997Z,13.84
2019-05-18T21:45:43.472Z,13.81
2019-05-18T21:48:14.094Z,13.73
2019-05-18T21:50:41.872Z,13.73
2019-05-18T21:53:09.961Z,13.66
2019-05-18T21:55:37.597Z,13.66
2019-05-18T21:58:05.244Z,13.66
2019-05-18T22:00:37.735Z,13.65
2019-05-18T22:03:06.349Z,13.64
2019-05-18T22:05:34.038Z,13.61
2019-05-18T22:08:05.239Z,13.60
2019-05-18T22:10:32.982Z,13.57
2019-05-18T22:13:00.918Z,13.56
2019-05-18T22:15:29.290Z,13.51
2019-05-18T22:18:22.224Z,13.51
2019-05-18T22:20:43.271Z,13.49
2019-05-18T22:23:07.530Z,13.45
2019-05-18T22:25:36.157Z,13.45
2019-05-18T22:28:03.999Z,13.41
2019-05-18T22:30:33.926Z,13.35
2019-05-18T22:33:01.515Z,13.35
2019-05-18T22:35:33.477Z,13.34
2019-05-18T22:41:08.309Z,13.28
2019-05-18T22:43:54.736Z,13.24
2019-05-18T22:46:41.140Z,13.19
2019-05-18T22:49:08.946Z,13.19
2019-05-18T22:51:55.305Z,13.11
2019-05-18T22:54:41.745Z,13.06
2019-05-18T22:57:28.202Z,13.06
2019-05-18T23:03:03.309Z,13.04
2019-05-18T23:05:31.087Z,13.03
2019-05-18T23:08:31.608Z,12.99
2019-05-18T23:10:59.255Z,12.99
2019-05-18T23:13:27.171Z,12.98
2019-05-18T23:15:54.763Z,12.98
2019-05-18T23:18:22.288Z,12.98
2019-05-18T23:20:50.335Z,12.97
2019-05-18T23:23:17.932Z,12.97
2019-05-18T23:25:45.591Z,12.98
2019-05-18T23:28:16.825Z,13.00
2019-05-18T23:30:44.493Z,12.99
2019-05-18T23:33:15.005Z,13.00
2019-05-18T23:35:43.037Z,13.00
2019-05-18T23:38:10.702Z,12.98
2019-05-18T23:40:38.275Z,12.96
2019-05-18T23:43:24.695Z,12.96
2019-05-18T23:45:52.440Z,12.93
2019-05-18T23:48:39.273Z,12.90
2019-05-18T23:51:06.909Z,12.86
2019-05-18T23:53:34.604Z,12.80
2019-05-18T23:56:21.026Z,12.75
2019-05-18T23:59:07.397Z,12.66
